createdAt,value
2024-02-18T00:00:08.869Z,96363.75
2024-02-18T00:02:38.087Z,96357.28
2024-02-18T00:05:07.937Z,96355.34
2024-02-18T00:07:35.262Z,96363.66
2024-02-18T00:10:02.352Z,96355.03
2024-02-18T00:12:29.431Z,96357.72
2024-02-18T00:14:56.340Z,96370.44
2024-02-18T00:17:23.092Z,96365.44
2024-02-18T00:19:50.020Z,96366.41
2024-02-18T00:22:16.837Z,96368.41
2024-02-18T00:24:43.838Z,96359.69
2024-02-18T00:27:12.000Z,96361.72
2024-02-18T00:29:39.719Z,96351.59
2024-02-18T00:32:07.106Z,96353.25
2024-02-18T00:34:33.997Z,96344.34
2024-02-18T00:37:01.013Z,96340.69
2024-02-18T00:39:29.019Z,96350.22
2024-02-18T00:41:55.779Z,96343.31
2024-02-18T00:44:24.668Z,96347.53
2024-02-18T00:47:01.112Z,96352.41
2024-02-18T00:49:36.218Z,96344.53
2024-02-18T00:52:04.384Z,96350.75
2024-02-18T00:54:31.293Z,96350.16
2024-02-18T00:56:58.135Z,96353.16
2024-02-18T00:59:24.972Z,96359.41
2024-02-18T01:01:51.768Z,96361.22
2024-02-18T01:04:18.703Z,96366.38
2024-02-18T01:06:45.576Z,96362.50
2024-02-18T01:09:12.540Z,96355.06
2024-02-18T01:11:39.341Z,96358.22
2024-02-18T01:14:06.104Z,96349.13
2024-02-18T01:16:32.885Z,96351.81
2024-02-18T01:18:59.837Z,96341.09
2024-02-18T01:21:26.708Z,96349.66
2024-02-18T01:23:53.540Z,96345.72
2024-02-18T01:26:20.486Z,96349.22
2024-02-18T01:28:47.299Z,96347.72
2024-02-18T01:31:14.282Z,96359.97
2024-02-18T01:33:43.946Z,96362.47
2024-02-18T01:36:10.905Z,96358.25
2024-02-18T01:38:37.759Z,96361.91
2024-02-18T01:41:04.782Z,96366.53
2024-02-18T01:43:31.639Z,96358.66
2024-02-18T01:45:58.744Z,96366.47
2024-02-18T01:48:26.092Z,96363.69
2024-02-18T01:50:54.521Z,96351.97
2024-02-18T01:53:22.066Z,96347.72
2024-02-18T01:55:49.751Z,96341.91
2024-02-18T01:58:17.323Z,96339.50
2024-02-18T02:00:45.007Z,96337.97
2024-02-18T02:03:14.030Z,96341.69
2024-02-18T02:05:42.914Z,96343.53
2024-02-18T02:08:09.893Z,96340.75
2024-02-18T02:10:37.598Z,96344.06
2024-02-18T02:13:08.812Z,96341.25
2024-02-18T02:15:35.929Z,96334.34
2024-02-18T02:18:03.234Z,96340.56
2024-02-18T02:20:30.922Z,96343.88
2024-02-18T02:22:57.704Z,96338.47
2024-02-18T02:25:24.905Z,96334.06
2024-02-18T02:28:22.587Z,96335.69
2024-02-18T02:30:50.611Z,96324.03
2024-02-18T02:33:22.264Z,96318.34
2024-02-18T02:35:49.700Z,96319.16
2024-02-18T02:38:16.662Z,96319.56
2024-02-18T02:40:43.728Z,96320.59
2024-02-18T02:43:12.307Z,96318.81
2024-02-18T02:45:39.315Z,96315.72
2024-02-18T02:48:06.542Z,96310.53
2024-02-18T02:50:36.765Z,96319.16
2024-02-18T02:53:06.202Z,96315.56
2024-02-18T02:55:33.307Z,96310.22
2024-02-18T02:58:00.540Z,96314.31
2024-02-18T03:00:27.480Z,96307.25
2024-02-18T03:02:54.297Z,96309.44
2024-02-18T03:05:21.227Z,96308.28
2024-02-18T03:07:48.032Z,96306.78
2024-02-18T03:10:14.991Z,96304.19
2024-02-18T03:12:41.931Z,96298.84
2024-02-18T03:15:09.195Z,96292.94
2024-02-18T03:17:36.928Z,96299.59
2024-02-18T03:20:08.504Z,96282.47
2024-02-18T03:22:35.548Z,96288.28
2024-02-18T03:25:02.822Z,96281.16
2024-02-18T03:27:29.886Z,96277.06
2024-02-18T03:29:56.690Z,96286.44
2024-02-18T03:32:23.466Z,96279.53
2024-02-18T03:34:50.677Z,96286.84
2024-02-18T03:37:17.606Z,96283.22
2024-02-18T03:39:44.413Z,96270.22
2024-02-18T03:42:11.229Z,96266.78
2024-02-18T03:44:37.969Z,96266.00
2024-02-18T03:47:05.018Z,96267.00
2024-02-18T03:49:31.945Z,96265.75
2024-02-18T03:51:59.094Z,96268.72
2024-02-18T03:54:27.802Z,96268.63
2024-02-18T03:56:54.716Z,96254.06
2024-02-18T03:59:22.066Z,96261.13
2024-02-18T04:01:49.301Z,96260.78
2024-02-18T04:04:16.714Z,96275.44
2024-02-18T04:06:44.233Z,96270.81
2024-02-18T04:09:14.309Z,96273.19
2024-02-18T04:11:41.124Z,96280.47
2024-02-18T04:14:08.933Z,96268.13
2024-02-18T04:16:35.858Z,96271.06
2024-02-18T04:19:02.903Z,96268.09
2024-02-18T04:21:29.784Z,96271.88
2024-02-18T04:23:56.665Z,96267.84
2024-02-18T04:26:24.013Z,96279.97
2024-02-18T04:28:50.896Z,96277.66
2024-02-18T04:31:17.975Z,96278.53
2024-02-18T04:33:44.967Z,96282.59
2024-02-18T04:36:13.150Z,96284.13
2024-02-18T04:38:41.037Z,96284.41
2024-02-18T04:41:07.868Z,96283.84
2024-02-18T04:43:34.706Z,96281.94
2024-02-18T04:46:01.518Z,96277.59
2024-02-18T04:48:28.456Z,96285.13
2024-02-18T04:50:55.250Z,96287.97
2024-02-18T04:53:22.065Z,96287.09
2024-02-18T04:55:48.842Z,96284.50
2024-02-18T04:58:15.640Z,96286.38
2024-02-18T05:00:42.439Z,96289.22
2024-02-18T05:03:09.230Z,96285.63
2024-02-18T05:05:36.172Z,96298.19
2024-02-18T05:08:03.113Z,96294.25
2024-02-18T05:10:29.891Z,96293.31
2024-02-18T05:12:56.712Z,96288.06
2024-02-18T05:15:23.647Z,96295.75
2024-02-18T05:17:50.507Z,96301.22
2024-02-18T05:20:17.420Z,96299.03
2024-02-18T05:22:45.130Z,96296.19
2024-02-18T05:25:12.116Z,96296.25
2024-02-18T05:27:39.130Z,96293.47
2024-02-18T05:30:06.650Z,96287.44
2024-02-18T05:32:33.505Z,96284.03
2024-02-18T05:35:00.439Z,96284.41
2024-02-18T05:37:27.226Z,96282.78
2024-02-18T05:39:54.057Z,96281.34
2024-02-18T05:42:20.894Z,96294.47
2024-02-18T05:44:47.645Z,96295.75
2024-02-18T05:47:14.405Z,96296.84
2024-02-18T05:49:44.177Z,96301.19
2024-02-18T05:52:11.983Z,96301.84
2024-02-18T05:54:39.149Z,96306.41
2024-02-18T05:57:08.167Z,96303.97
2024-02-18T05:59:35.277Z,96294.09
2024-02-18T06:02:02.127Z,96299.81
2024-02-18T06:04:28.934Z,96300.81
2024-02-18T06:06:55.911Z,96305.59
2024-02-18T06:09:23.723Z,96308.44
2024-02-18T06:11:55.161Z,96301.16
2024-02-18T06:14:22.229Z,96292.13
2024-02-18T06:16:49.052Z,96294.38
2024-02-18T06:19:17.836Z,96292.84
2024-02-18T06:21:45.298Z,96295.94
2024-02-18T06:24:12.394Z,96283.69
2024-02-18T06:26:42.422Z,96284.50
2024-02-18T06:29:10.610Z,96284.78
2024-02-18T06:31:37.434Z,96287.31
2024-02-18T06:34:04.372Z,96287.69
2024-02-18T06:36:37.159Z,96275.44
2024-02-18T06:39:04.733Z,96277.91
2024-02-18T06:41:33.000Z,96287.50
2024-02-18T06:43:59.846Z,96288.22
2024-02-18T06:46:26.731Z,96294.25
2024-02-18T06:48:53.873Z,96292.31
2024-02-18T06:51:20.798Z,96285.47
2024-02-18T06:53:47.530Z,96291.28
2024-02-18T06:56:17.798Z,96291.72
2024-02-18T06:58:44.593Z,96291.22
2024-02-18T07:01:11.539Z,96288.50
2024-02-18T07:03:38.532Z,96295.84
2024-02-18T07:06:05.523Z,96291.38
2024-02-18T07:08:32.326Z,96291.78
2024-02-18T07:10:59.205Z,96286.25
2024-02-18T07:13:26.900Z,96278.16
2024-02-18T07:15:53.956Z,96274.81
2024-02-18T07:18:20.793Z,96280.16
2024-02-18T07:20:47.614Z,96283.06
2024-02-18T07:23:14.424Z,96283.13
2024-02-18T07:25:43.708Z,96277.66
2024-02-18T07:28:10.622Z,96273.25
2024-02-18T07:30:37.521Z,96269.41
2024-02-18T07:33:04.710Z,96259.00
2024-02-18T07:35:31.486Z,96256.44
2024-02-18T07:37:58.276Z,96257.28
2024-02-18T07:40:25.022Z,96247.34
2024-02-18T07:42:51.931Z,96253.44
2024-02-18T07:45:19.366Z,96249.22
2024-02-18T07:47:46.305Z,96245.59
2024-02-18T07:50:13.186Z,96255.25
2024-02-18T07:52:39.925Z,96251.03
2024-02-18T07:55:07.056Z,96233.56
2024-02-18T07:57:33.955Z,96228.47
2024-02-18T08:00:00.786Z,96238.03
2024-02-18T08:02:28.949Z,96235.97
2024-02-18T08:04:55.818Z,96231.06
2024-02-18T08:07:24.891Z,96219.25
2024-02-18T08:09:52.803Z,96212.66
2024-02-18T08:12:19.752Z,96212.31
2024-02-18T08:14:46.620Z,96199.91
2024-02-18T08:17:13.540Z,96205.69
2024-02-18T08:19:40.425Z,96208.50
2024-02-18T08:22:07.421Z,96197.22
2024-02-18T08:24:34.443Z,96203.03
2024-02-18T08:27:01.608Z,96202.75
2024-02-18T08:29:29.020Z,96196.19
2024-02-18T08:31:55.818Z,96189.53
2024-02-18T08:34:23.793Z,96183.94
2024-02-18T08:36:50.765Z,96192.03
2024-02-18T08:39:17.539Z,96179.63
2024-02-18T08:41:44.320Z,96171.53
2024-02-18T08:44:11.223Z,96172.34
2024-02-18T08:46:38.879Z,96179.94
2024-02-18T08:49:05.761Z,96156.09
2024-02-18T08:51:32.641Z,96172.22
2024-02-18T08:53:59.513Z,96174.19
2024-02-18T08:56:26.267Z,96174.09
2024-02-18T08:58:53.137Z,96170.06
2024-02-18T09:01:21.200Z,96187.44
2024-02-18T09:03:48.336Z,96162.41
2024-02-18T09:06:15.411Z,96185.78
2024-02-18T09:08:43.502Z,96184.31
2024-02-18T09:11:10.599Z,96151.25
2024-02-18T09:13:37.495Z,96172.13
2024-02-18T09:16:04.622Z,96165.16
2024-02-18T09:18:31.518Z,96136.31
2024-02-18T09:20:58.391Z,96150.75
2024-02-18T09:23:25.157Z,96155.44
2024-02-18T09:25:51.860Z,96166.84
2024-02-18T09:28:19.805Z,96149.59
2024-02-18T09:30:46.782Z,96138.31
2024-02-18T09:33:14.020Z,96151.75
2024-02-18T09:35:41.036Z,96159.19
2024-02-18T09:38:10.533Z,96149.34
2024-02-18T09:40:37.979Z,96136.56
2024-02-18T09:43:05.062Z,96136.50
2024-02-18T09:45:34.266Z,96104.09
2024-02-18T09:48:03.272Z,96151.63
2024-02-18T09:50:34.294Z,96111.72
2024-02-18T09:53:03.448Z,96138.59
2024-02-18T09:55:30.306Z,96134.75
2024-02-18T09:57:57.129Z,96144.19
2024-02-18T10:00:24.254Z,96140.78
2024-02-18T10:02:51.267Z,96114.91
2024-02-18T10:05:18.249Z,96121.56
2024-02-18T10:07:45.101Z,96114.50
2024-02-18T10:10:11.921Z,96112.91
2024-02-18T10:12:39.476Z,96108.59
2024-02-18T10:15:06.946Z,96111.25
2024-02-18T10:17:34.807Z,96108.38
2024-02-18T10:20:02.693Z,96098.56
2024-02-18T10:22:30.093Z,96100.09
2024-02-18T10:24:57.623Z,96085.03
2024-02-18T10:27:24.729Z,96090.78
2024-02-18T10:29:52.493Z,96091.72
2024-02-18T10:32:20.726Z,96086.94
2024-02-18T10:34:49.680Z,96080.34
2024-02-18T10:37:29.457Z,96077.22
2024-02-18T10:40:01.928Z,96068.59
2024-02-18T10:42:30.244Z,96070.56
2024-02-18T10:45:01.355Z,96067.72
2024-02-18T10:47:30.683Z,96064.50
2024-02-18T10:50:04.907Z,96070.81
2024-02-18T10:52:49.401Z,96062.78
2024-02-18T10:55:26.158Z,96071.78
2024-02-18T10:58:01.580Z,96064.81
2024-02-18T11:00:31.023Z,96062.44
2024-02-18T11:03:19.078Z,96058.50
2024-02-18T11:05:46.379Z,96050.78
2024-02-18T11:08:13.732Z,96036.47
2024-02-18T11:13:09.882Z,96033.97
2024-02-18T11:15:37.505Z,96024.03
2024-02-18T11:18:06.425Z,96021.78
2024-02-18T11:20:33.947Z,96028.44
2024-02-18T11:23:02.285Z,96002.91
2024-02-18T11:25:29.062Z,96007.66
2024-02-18T11:27:56.007Z,96000.03
2024-02-18T11:30:22.944Z,96000.41
2024-02-18T11:32:50.539Z,95977.50
2024-02-18T11:35:20.630Z,95978.69
2024-02-18T11:37:49.474Z,95982.50
2024-02-18T11:40:19.863Z,95979.28
2024-02-18T11:42:48.075Z,95969.25
2024-02-18T11:45:24.658Z,95970.56
2024-02-18T11:47:54.309Z,95952.34
2024-02-18T11:50:21.312Z,95946.28
2024-02-18T11:52:49.382Z,95941.41
2024-02-18T11:55:25.169Z,95946.16
2024-02-18T11:57:52.808Z,95934.66
2024-02-18T12:00:20.453Z,95933.53
2024-02-18T12:02:52.682Z,95937.69
2024-02-18T12:05:22.295Z,95932.72
2024-02-18T12:07:51.650Z,95937.19
2024-02-18T12:10:21.778Z,95928.59
2024-02-18T12:12:48.682Z,95916.91
2024-02-18T12:15:31.939Z,95911.31
2024-02-18T12:18:01.279Z,95919.59
2024-02-18T12:20:29.254Z,95919.06
2024-02-18T12:23:05.985Z,95908.84
2024-02-18T12:25:42.153Z,95904.38
2024-02-18T12:28:12.336Z,95892.13
2024-02-18T12:30:39.480Z,95892.38
2024-02-18T12:33:07.063Z,95890.63
2024-02-18T12:35:37.084Z,95882.97
2024-02-18T12:38:06.246Z,95882.75
2024-02-18T12:40:34.688Z,95887.59
2024-02-18T12:43:25.719Z,95878.38
2024-02-18T12:45:52.584Z,95882.28
2024-02-18T12:48:23.788Z,95882.50
2024-02-18T12:51:12.490Z,95871.84
2024-02-18T12:53:40.823Z,95871.69
2024-02-18T12:56:09.719Z,95862.38
2024-02-18T12:58:39.630Z,95863.06
2024-02-18T13:01:06.938Z,95864.16
2024-02-18T13:03:37.177Z,95856.03
2024-02-18T13:06:05.421Z,95855.66
2024-02-18T13:08:34.000Z,95850.25
2024-02-18T13:11:01.044Z,95851.81
2024-02-18T13:13:29.091Z,95837.38
2024-02-18T13:15:56.418Z,95841.44
2024-02-18T13:18:23.513Z,95841.72
2024-02-18T13:20:50.353Z,95837.34
2024-02-18T13:23:17.254Z,95838.16
2024-02-18T13:25:44.075Z,95826.75
2024-02-18T13:28:13.449Z,95831.03
2024-02-18T13:30:40.378Z,95832.03
2024-02-18T13:33:07.549Z,95832.91
2024-02-18T13:35:34.704Z,95829.41
2024-02-18T13:38:01.990Z,95824.41
2024-02-18T13:40:31.121Z,95818.97
2024-02-18T13:42:58.946Z,95819.66
2024-02-18T13:45:26.846Z,95812.47
2024-02-18T13:47:58.999Z,95813.59
2024-02-18T13:50:27.266Z,95810.38
2024-02-18T13:52:54.166Z,95803.59
2024-02-18T13:55:21.005Z,95796.13
2024-02-18T13:57:47.881Z,95792.25
2024-02-18T14:00:15.876Z,95790.66
2024-02-18T14:02:43.068Z,95799.81
2024-02-18T14:05:12.255Z,95791.78
2024-02-18T14:07:42.306Z,95787.31
2024-02-18T14:10:09.352Z,95793.88
2024-02-18T14:12:36.239Z,95782.97
2024-02-18T14:15:03.143Z,95775.03
2024-02-18T14:17:30.097Z,95780.56
2024-02-18T14:19:57.590Z,95778.84
2024-02-18T14:22:24.655Z,95771.03
2024-02-18T14:24:51.822Z,95762.06
2024-02-18T14:27:18.711Z,95766.44
2024-02-18T14:29:45.588Z,95756.13
2024-02-18T14:32:12.634Z,95761.09
2024-02-18T14:34:39.592Z,95756.09
2024-02-18T14:37:06.599Z,95762.72
2024-02-18T14:39:33.878Z,95750.50
2024-02-18T14:42:00.982Z,95762.75
2024-02-18T14:44:30.249Z,95757.88
2024-02-18T14:46:57.206Z,95753.72
2024-02-18T14:49:29.996Z,95758.06
2024-02-18T14:52:02.974Z,95752.38
2024-02-18T14:54:29.826Z,95750.78
2024-02-18T14:56:58.065Z,95750.88
2024-02-18T14:59:24.892Z,95747.44
2024-02-18T15:01:51.725Z,95746.47
2024-02-18T15:04:18.541Z,95747.94
2024-02-18T15:06:45.567Z,95739.50
2024-02-18T15:09:14.275Z,95743.34
2024-02-18T15:11:41.252Z,95736.44
2024-02-18T15:14:07.994Z,95738.50
2024-02-18T15:16:34.781Z,95740.63
2024-02-18T15:19:01.652Z,95740.03
2024-02-18T15:21:29.406Z,95727.28
2024-02-18T15:23:56.250Z,95730.31
2024-02-18T15:26:23.021Z,95733.00
2024-02-18T15:28:49.722Z,95733.44
2024-02-18T15:31:16.683Z,95735.94
2024-02-18T15:33:44.585Z,95728.25
2024-02-18T15:36:11.470Z,95718.50
2024-02-18T15:38:38.266Z,95711.69
2024-02-18T15:41:06.418Z,95708.91
2024-02-18T15:43:33.192Z,95707.22
2024-02-18T15:46:00.210Z,95705.63
2024-02-18T15:48:27.330Z,95700.69
2024-02-18T15:50:54.108Z,95707.78
2024-02-18T15:53:20.875Z,95693.38
2024-02-18T15:55:54.052Z,95688.44
2024-02-18T15:58:28.738Z,95683.25
2024-02-18T16:00:55.788Z,95676.66
2024-02-18T16:03:22.727Z,95667.28
2024-02-18T16:05:49.690Z,95658.88
2024-02-18T16:08:16.714Z,95659.88
2024-02-18T16:10:43.545Z,95655.41
2024-02-18T16:13:10.531Z,95650.66
2024-02-18T16:15:37.525Z,95640.38
2024-02-18T16:18:15.985Z,95635.66
2024-02-18T16:20:44.298Z,95631.88
2024-02-18T16:23:11.027Z,95636.78
2024-02-18T16:25:37.798Z,95628.91
2024-02-18T16:28:04.814Z,95630.41
2024-02-18T16:30:31.664Z,95634.22
2024-02-18T16:32:58.489Z,95623.81
2024-02-18T16:35:27.800Z,95617.78
2024-02-18T16:37:54.897Z,95619.09
2024-02-18T16:40:21.706Z,95607.03
2024-02-18T16:42:49.477Z,95601.72
2024-02-18T16:45:17.690Z,95597.81
2024-02-18T16:47:45.485Z,95589.22
2024-02-18T16:50:12.752Z,95585.69
2024-02-18T16:52:39.613Z,95581.53
2024-02-18T16:55:07.072Z,95590.28
2024-02-18T16:57:35.073Z,95578.59
2024-02-18T17:00:03.015Z,95586.53
2024-02-18T17:02:29.841Z,95587.50
2024-02-18T17:04:56.580Z,95585.50
2024-02-18T17:07:24.070Z,95590.28
2024-02-18T17:09:50.895Z,95584.84
2024-02-18T17:12:17.872Z,95597.53
2024-02-18T17:14:44.624Z,95591.13
2024-02-18T17:17:11.360Z,95581.97
2024-02-18T17:19:38.432Z,95586.34
2024-02-18T17:22:08.159Z,95592.25
2024-02-18T17:24:38.311Z,95586.28
2024-02-18T17:27:06.482Z,95590.56
2024-02-18T17:29:33.195Z,95581.66
2024-02-18T17:32:01.044Z,95576.06
2024-02-18T17:34:27.978Z,95581.44
2024-02-18T17:36:56.132Z,95594.03
2024-02-18T17:39:24.603Z,95602.75
2024-02-18T17:41:52.049Z,95599.75
2024-02-18T17:44:19.561Z,95601.72
2024-02-18T17:46:46.454Z,95609.41
2024-02-18T17:49:13.374Z,95604.56
2024-02-18T17:51:41.156Z,95614.41
2024-02-18T17:54:08.194Z,95621.88
2024-02-18T17:56:36.593Z,95626.94
2024-02-18T17:59:08.805Z,95636.59
2024-02-18T18:01:36.015Z,95640.84
2024-02-18T18:04:03.108Z,95640.94
2024-02-18T18:06:33.330Z,95636.00
2024-02-18T18:09:02.854Z,95641.16
2024-02-18T18:11:31.192Z,95640.56
2024-02-18T18:13:58.858Z,95636.56
2024-02-18T18:16:27.833Z,95636.34
2024-02-18T18:18:55.012Z,95641.56
2024-02-18T18:21:21.755Z,95635.66
2024-02-18T18:23:52.564Z,95636.13
2024-02-18T18:26:23.336Z,95638.94
2024-02-18T18:28:51.332Z,95644.25
2024-02-18T18:31:18.631Z,95637.78
2024-02-18T18:33:47.440Z,95621.94
2024-02-18T18:36:14.985Z,95621.91
2024-02-18T18:38:42.019Z,95619.81
2024-02-18T18:41:08.867Z,95613.50
2024-02-18T18:43:35.697Z,95607.28
2024-02-18T18:46:02.773Z,95622.97
2024-02-18T18:48:30.404Z,95636.59
2024-02-18T18:50:57.424Z,95642.22
2024-02-18T18:53:24.736Z,95629.31
2024-02-18T18:55:51.678Z,95631.25
2024-02-18T18:58:18.967Z,95631.84
2024-02-18T19:00:46.028Z,95638.53
2024-02-18T19:03:12.896Z,95620.50
2024-02-18T19:05:41.325Z,95624.72
2024-02-18T19:08:08.211Z,95630.81
2024-02-18T19:10:35.863Z,95633.41
2024-02-18T19:13:08.052Z,95641.34
2024-02-18T19:15:41.655Z,95648.88
2024-02-18T19:18:10.832Z,95666.16
2024-02-18T19:20:37.684Z,95671.03
2024-02-18T19:23:04.679Z,95671.72
2024-02-18T19:25:31.509Z,95649.72
2024-02-18T19:27:58.813Z,95639.75
2024-02-18T19:30:26.121Z,95653.63
2024-02-18T19:32:52.954Z,95634.72
2024-02-18T19:35:22.431Z,95653.72
2024-02-18T19:37:50.492Z,95641.00
2024-02-18T19:40:17.441Z,95641.88
2024-02-18T19:42:46.021Z,95651.47
2024-02-18T19:45:12.906Z,95655.75
2024-02-18T19:47:40.124Z,95657.81
2024-02-18T19:50:07.997Z,95663.03
2024-02-18T19:52:34.841Z,95654.78
2024-02-18T19:55:08.329Z,95649.59
2024-02-18T19:57:37.720Z,95644.00
2024-02-18T20:00:05.897Z,95637.56
2024-02-18T20:02:37.461Z,95637.81
2024-02-18T20:05:04.790Z,95638.94
2024-02-18T20:07:31.887Z,95633.47
2024-02-18T20:09:58.843Z,95633.34
2024-02-18T20:12:25.868Z,95634.06
2024-02-18T20:14:52.624Z,95645.59
2024-02-18T20:17:19.439Z,95648.34
2024-02-18T20:19:46.449Z,95646.41
2024-02-18T20:22:14.053Z,95641.81
2024-02-18T20:24:45.292Z,95643.69
2024-02-18T20:27:12.172Z,95648.53
2024-02-18T20:29:42.186Z,95654.59
2024-02-18T20:32:09.871Z,95655.88
2024-02-18T20:34:41.728Z,95665.16
2024-02-18T20:37:08.839Z,95651.59
2024-02-18T20:39:36.451Z,95656.91
2024-02-18T20:42:03.463Z,95656.53
2024-02-18T20:44:30.262Z,95654.13
2024-02-18T20:46:57.121Z,95657.81
2024-02-18T20:49:25.074Z,95657.91
2024-02-18T20:51:53.052Z,95652.31
2024-02-18T20:54:22.960Z,95656.56
2024-02-18T20:56:49.719Z,95659.41
2024-02-18T20:59:16.543Z,95669.50
2024-02-18T21:01:44.116Z,95664.13
2024-02-18T21:04:11.036Z,95663.44
2024-02-18T21:06:38.069Z,95660.69
2024-02-18T21:09:05.136Z,95654.09
2024-02-18T21:11:31.991Z,95652.06
2024-02-18T21:13:58.883Z,95658.38
2024-02-18T21:16:25.686Z,95655.97
2024-02-18T21:18:52.897Z,95651.97
2024-02-18T21:21:19.828Z,95655.19
2024-02-18T21:23:46.590Z,95648.59
2024-02-18T21:26:22.460Z,95650.81
2024-02-18T21:28:50.589Z,95645.72
2024-02-18T21:31:17.951Z,95643.44
2024-02-18T21:33:45.196Z,95643.94
2024-02-18T21:36:17.839Z,95640.38
2024-02-18T21:38:44.814Z,95645.16
2024-02-18T21:41:11.497Z,95635.50
2024-02-18T21:43:39.900Z,95636.22
2024-02-18T21:46:10.151Z,95624.59
2024-02-18T21:48:37.335Z,95630.53
2024-02-18T21:51:04.427Z,95630.00
2024-02-18T21:53:31.196Z,95630.59
2024-02-18T21:55:58.079Z,95625.25
2024-02-18T21:58:25.074Z,95621.97
2024-02-18T22:00:52.031Z,95613.81
2024-02-18T22:03:18.830Z,95614.13
2024-02-18T22:05:45.611Z,95605.22
2024-02-18T22:08:12.440Z,95607.50
2024-02-18T22:10:39.308Z,95599.25
2024-02-18T22:13:06.334Z,95602.69
2024-02-18T22:15:33.448Z,95605.59
2024-02-18T22:18:00.389Z,95601.47
2024-02-18T22:20:27.956Z,95597.25
2024-02-18T22:22:55.805Z,95598.78
2024-02-18T22:25:22.611Z,95592.53
2024-02-18T22:27:49.392Z,95594.84
2024-02-18T22:30:17.266Z,95606.72
2024-02-18T22:32:44.307Z,95598.31
2024-02-18T22:35:11.363Z,95601.72
2024-02-18T22:37:38.209Z,95599.75
2024-02-18T22:40:07.364Z,95601.50
2024-02-18T22:42:34.497Z,95604.09
2024-02-18T22:45:01.504Z,95609.91
2024-02-18T22:47:28.248Z,95599.03
2024-02-18T22:49:54.976Z,95612.09
2024-02-18T22:52:21.876Z,95605.44
2024-02-18T22:54:49.507Z,95608.88
2024-02-18T22:57:16.796Z,95603.22
2024-02-18T22:59:44.956Z,95594.16
2024-02-18T23:02:11.716Z,95595.13
2024-02-18T23:04:38.472Z,95592.47
2024-02-18T23:07:07.836Z,95586.81
2024-02-18T23:09:35.323Z,95587.47
2024-02-18T23:12:02.544Z,95591.00
2024-02-18T23:14:29.710Z,95584.25
2024-02-18T23:16:56.549Z,95594.53
2024-02-18T23:19:23.627Z,95604.41
2024-02-18T23:21:50.497Z,95616.69
2024-02-18T23:24:17.410Z,95623.63
2024-02-18T23:26:44.172Z,95623.06
2024-02-18T23:29:11.104Z,95629.56
2024-02-18T23:31:39.155Z,95636.69
2024-02-18T23:34:08.508Z,95633.94
2024-02-18T23:36:35.576Z,95634.84
2024-02-18T23:39:02.341Z,95639.19
2024-02-18T23:41:29.326Z,95643.56
2024-02-18T23:43:56.200Z,95627.72
2024-02-18T23:46:23.123Z,95640.56
2024-02-18T23:48:50.078Z,95647.31
2024-02-18T23:51:17.141Z,95646.38
2024-02-18T23:53:43.970Z,95640.09
2024-02-18T23:56:10.750Z,95651.19
2024-02-18T23:58:37.667Z,95651.50
